Time;durP1;ratioP1;P1;durP2;ratioP2;P2;SDS_P1;SDS_P2;PMS_P1;PMS_P2;Temp;Humidity;BMP_temperature;BMP_pressure;BME280_temperature;BME280_humidity;BME280_pressure;Samples;Min_cycle;Max_cycle;Signal;HPM_P1;HPM_P2
2022/06/08 00:00:18;;;;;;;11.30;4.80;;;13.10;99.90;;;;;;5137120;27;20051;-71
2022/06/08 00:02:49;;;;;;;12.20;4.90;;;12.20;99.90;;;;;;5129974;27;20410;-70
2022/06/08 00:05:15;;;;;;;9.30;5.30;;;12.20;99.90;;;;;;5129730;27;20062;-70
2022/06/08 00:07:41;;;;;;;11.30;5.13;;;12.20;99.90;;;;;;5138459;27;20046;-70
2022/06/08 00:10:07;;;;;;;10.70;4.97;;;12.20;99.90;;;;;;5165987;27;20061;-71
2022/06/08 00:12:34;;;;;;;14.45;5.18;;;12.20;99.90;;;;;;5150786;27;20451;-70
2022/06/08 00:14:59;;;;;;;12.20;5.00;;;12.10;99.90;;;;;;5149120;27;20038;-70
2022/06/08 00:17:25;;;;;;;9.05;5.35;;;12.60;99.90;;;;;;5146171;27;20155;-70
2022/06/08 00:19:51;;;;;;;11.40;4.90;;;12.30;99.90;;;;;;5151735;27;20039;-70
2022/06/08 00:22:17;;;;;;;13.82;5.60;;;12.10;99.90;;;;;;5149005;27;20043;-70
2022/06/08 00:24:43;;;;;;;13.40;5.22;;;12.10;99.90;;;;;;5132938;27;20057;-71
2022/06/08 00:27:09;;;;;;;14.95;5.82;;;12.10;99.90;;;;;;5152097;27;20077;-71
2022/06/08 00:29:35;;;;;;;9.77;5.22;;;12.10;99.90;;;;;;5149690;27;20073;-70
2022/06/08 00:32:01;;;;;;;11.38;5.70;;;12.00;99.90;;;;;;5150219;27;20138;-70
2022/06/08 00:34:27;;;;;;;11.50;4.90;;;12.00;99.90;;;;;;5149498;27;20035;-70
2022/06/08 00:36:53;;;;;;;14.18;5.72;;;11.90;99.90;;;;;;5131693;27;20406;-71
2022/06/08 00:39:18;;;;;;;13.13;5.90;;;11.90;99.90;;;;;;5150155;27;20039;-70
2022/06/08 00:41:50;;;;;;;13.52;5.72;;;11.90;99.90;;;;;;5150205;27;20049;-70
2022/06/08 00:44:31;;;;;;;12.25;5.68;;;13.00;99.90;;;;;;5149101;27;20083;-70
2022/06/08 00:46:59;;;;;;;11.73;5.88;;;11.90;99.90;;;;;;5149831;27;20077;-70
2022/06/08 00:49:42;;;;;;;12.82;6.22;;;12.20;99.90;;;;;;5148701;27;20096;-70
2022/06/08 00:52:09;;;;;;;14.73;5.75;;;11.90;99.90;;;;;;5131297;27;20065;-70
2022/06/08 00:54:39;;;;;;;11.48;6.35;;;11.90;99.90;;;;;;5128212;27;20054;-70
2022/06/08 00:57:11;;;;;;;12.60;5.93;;;13.00;99.90;;;;;;5128907;27;20043;-71
2022/06/08 00:59:41;;;;;;;9.52;6.18;;;12.00;99.90;;;;;;5142622;27;20439;-71
2022/06/08 01:02:09;;;;;;;10.90;5.85;;;11.90;99.90;;;;;;5149121;27;20039;-70
2022/06/08 01:04:35;;;;;;;12.60;6.57;;;12.30;99.90;;;;;;5148860;27;20054;-71
2022/06/08 01:07:00;;;;;;;12.43;6.55;;;11.80;99.90;;;;;;5149675;27;20035;-70
2022/06/08 01:09:36;;;;;;;12.70;5.97;;;11.80;99.90;;;;;;5131673;27;20648;-70
2022/06/08 01:12:10;;;;;;;13.25;6.30;;;11.80;99.90;;;;;;5149367;27;20091;-71
2022/06/08 01:14:36;;;;;;;12.98;6.38;;;11.80;99.90;;;;;;5149178;27;20038;-70
2022/06/08 01:17:08;;;;;;;16.48;7.20;;;11.90;99.90;;;;;;5149273;27;20051;-70
2022/06/08 01:19:36;;;;;;;14.02;6.65;;;11.80;99.90;;;;;;5148810;27;20099;-71
2022/06/08 01:22:04;;;;;;;12.45;6.60;;;12.10;99.90;;;;;;5150547;27;20097;-70
2022/06/08 01:24:31;;;;;;;13.18;6.68;;;11.80;99.90;;;;;;5152501;27;20775;-70
2022/06/08 01:27:11;;;;;;;14.15;6.75;;;12.60;99.90;;;;;;5154042;27;20046;-70
2022/06/08 01:30:09;;;;;;;11.65;6.70;;;11.80;99.90;;;;;;5118042;27;20034;-70
2022/06/08 01:33:02;;;;;;;9.43;5.85;;;11.70;99.90;;;;;;5133239;27;20122;-70
2022/06/08 01:35:54;;;;;;;11.52;6.25;;;11.70;99.90;;;;;;5155306;27;20520;-71
2022/06/08 01:38:26;;;;;;;10.77;6.70;;;11.60;99.90;;;;;;5152363;27;20035;-70
2022/06/08 01:40:57;;;;;;;15.02;6.60;;;11.60;99.90;;;;;;5155047;27;20121;-70
2022/06/08 01:43:42;;;;;;;12.20;6.95;;;11.60;99.90;;;;;;5143619;27;20043;-70
2022/06/08 01:46:24;;;;;;;12.27;6.18;;;11.60;99.90;;;;;;5148513;27;20046;-70
2022/06/08 01:49:08;;;;;;;15.98;6.57;;;11.60;99.90;;;;;;5134771;27;20050;-70
2022/06/08 01:51:38;;;;;;;11.70;6.85;;;11.60;99.90;;;;;;5153863;27;20057;-70
2022/06/08 01:54:40;;;;;;;11.25;6.38;;;12.30;99.90;;;;;;5152060;27;20391;-70
2022/06/08 01:57:21;;;;;;;13.07;7.05;;;11.60;99.90;;;;;;5135025;27;20358;-70
2022/06/08 01:59:54;;;;;;;11.70;6.50;;;11.50;99.90;;;;;;5153051;27;20043;-70
2022/06/08 02:02:32;;;;;;;11.32;6.80;;;11.50;99.90;;;;;;5154125;27;20046;-70
2022/06/08 02:05:12;;;;;;;13.57;7.25;;;11.50;99.90;;;;;;5153191;27;20082;-70
2022/06/08 02:08:12;;;;;;;11.15;7.15;;;11.50;99.90;;;;;;5166061;27;20471;-70
2022/06/08 02:10:55;;;;;;;14.30;7.10;;;11.40;99.90;;;;;;5138031;27;20150;-70
2022/06/08 02:13:35;;;;;;;11.75;6.60;;;11.40;99.90;;;;;;5153382;27;20095;-70
2022/06/08 02:16:11;;;;;;;15.88;7.30;;;11.50;99.90;;;;;;5144079;27;20043;-69
2022/06/08 02:19:06;;;;;;;;;;;11.50;99.90;;;;;;5137215;27;20487;-70
2022/06/08 02:21:55;;;;;;;12.55;6.82;;;11.40;99.90;;;;;;5129872;27;19927;-70
2022/06/08 02:24:45;;;;;;;10.85;7.25;;;11.40;99.90;;;;;;5152623;27;20050;-70
2022/06/08 02:27:20;;;;;;;12.20;7.22;;;11.50;99.90;;;;;;5154250;27;20058;-70
2022/06/08 02:30:03;;;;;;;11.60;6.97;;;11.50;99.90;;;;;;5132212;27;20039;-70
2022/06/08 02:35:27;;;;;;;11.25;7.25;;;11.60;99.90;;;;;;5130486;27;20054;-70
2022/06/08 02:37:58;;;;;;;11.65;7.57;;;11.90;99.90;;;;;;5113231;27;20475;-71
2022/06/08 02:40:28;;;;;;;13.32;7.40;;;12.30;99.90;;;;;;5132225;27;20387;-70
2022/06/08 02:42:58;;;;;;;12.63;7.30;;;11.80;99.90;;;;;;5151993;27;20462;-70
2022/06/08 02:45:37;;;;;;;14.07;7.13;;;12.80;99.90;;;;;;5133632;27;20047;-70
2022/06/08 02:48:09;;;;;;;12.45;8.10;;;11.60;99.90;;;;;;5153680;27;20049;-71
2022/06/08 02:50:36;;;;;;;13.00;7.63;;;11.60;99.90;;;;;;5151267;27;20043;-70
2022/06/08 02:53:28;;;;;;;14.80;8.20;;;11.50;99.90;;;;;;5150469;27;20142;-70
2022/06/08 02:56:13;;;;;;;16.83;8.43;;;11.60;99.90;;;;;;5120128;27;20042;-70
2022/06/08 02:58:57;;;;;;;13.95;7.85;;;11.50;99.90;;;;;;5134917;27;20096;-70
2022/06/08 03:01:47;;;;;;;14.32;8.90;;;11.50;99.90;;;;;;5153596;27;20046;-70
2022/06/08 03:04:23;;;;;;;13.85;8.65;;;11.50;99.90;;;;;;5151300;27;20050;-70
2022/06/08 03:06:53;;;;;;;16.33;9.23;;;11.60;99.90;;;;;;5152103;27;20079;-70
2022/06/08 03:09:20;;;;;;;19.23;10.20;;;11.60;99.90;;;;;;5147257;27;20039;-70
2022/06/08 03:11:53;;;;;;;16.25;10.27;;;12.20;99.90;;;;;;5151324;27;20046;-70
2022/06/08 03:14:20;;;;;;;17.13;9.20;;;11.60;99.90;;;;;;5151017;27;20042;-71
2022/06/08 03:17:01;;;;;;;15.45;9.63;;;12.90;99.90;;;;;;5150726;27;20199;-70
2022/06/08 03:19:30;;;;;;;15.65;10.75;;;11.60;99.90;;;;;;5152551;27;20031;-70
2022/06/08 03:21:56;;;;;;;15.55;10.02;;;11.60;99.90;;;;;;5154521;27;20035;-70
2022/06/08 03:24:23;;;;;;;18.15;10.48;;;11.60;99.90;;;;;;5151376;27;20060;-70
2022/06/08 03:26:52;;;;;;;18.52;10.23;;;11.70;99.90;;;;;;5151367;27;20418;-70
2022/06/08 03:29:18;;;;;;;19.02;10.63;;;11.70;99.90;;;;;;5151770;27;20095;-70
2022/06/08 03:31:43;;;;;;;16.00;10.35;;;11.70;99.90;;;;;;5150435;27;20482;-70
2022/06/08 03:34:09;;;;;;;16.88;10.40;;;11.70;99.90;;;;;;5149929;27;20027;-71
2022/06/08 03:36:35;;;;;;;17.35;10.68;;;11.60;99.90;;;;;;5151437;27;20046;-70
2022/06/08 03:39:02;;;;;;;16.70;10.55;;;11.60;99.90;;;;;;5131771;27;20055;-71
2022/06/08 03:41:27;;;;;;;16.27;10.40;;;11.70;99.90;;;;;;5152025;27;20433;-71
2022/06/08 03:43:53;;;;;;;17.45;10.68;;;11.60;99.90;;;;;;5137054;27;20087;-71
2022/06/08 03:46:19;;;;;;;17.63;10.93;;;11.60;99.90;;;;;;5129035;27;20076;-71
2022/06/08 03:48:46;;;;;;;18.25;11.65;;;11.60;99.90;;;;;;5128415;27;20121;-71
2022/06/08 03:51:15;;;;;;;17.90;11.45;;;11.50;99.90;;;;;;5132598;27;20057;-71
2022/06/08 03:53:47;;;;;;;16.42;11.10;;;11.60;99.90;;;;;;5150003;27;20050;-70
2022/06/08 03:56:16;;;;;;;16.98;11.27;;;11.70;99.90;;;;;;5150728;27;20157;-70
2022/06/08 03:58:42;;;;;;;20.67;12.50;;;11.60;99.90;;;;;;5132744;27;20049;-71
2022/06/08 04:01:08;;;;;;;17.75;11.60;;;11.70;99.90;;;;;;5148841;27;20084;-72
2022/06/08 04:03:34;;;;;;;18.85;12.15;;;11.90;99.90;;;;;;5132713;27;20170;-71
2022/06/08 04:06:00;;;;;;;20.83;11.43;;;11.90;99.90;;;;;;5149933;27;20034;-71
2022/06/08 04:08:26;;;;;;;21.38;11.98;;;12.90;99.90;;;;;;5150752;27;20039;-71
2022/06/08 04:10:52;;;;;;;18.63;12.13;;;11.70;99.90;;;;;;5150841;27;20053;-72
2022/06/08 04:13:18;;;;;;;17.48;11.20;;;11.60;99.90;;;;;;5149889;27;20336;-71
2022/06/08 04:15:44;;;;;;;20.90;12.15;;;11.70;99.90;;;;;;5149754;27;20050;-72
2022/06/08 04:18:19;;;;;;;19.45;11.50;;;11.60;99.90;;;;;;5150157;27;20035;-71
2022/06/08 04:20:49;;;;;;;18.63;11.70;;;11.50;99.90;;;;;;5149941;27;20204;-72
2022/06/08 04:23:16;;;;;;;19.63;11.30;;;11.60;99.90;;;;;;5149837;27;20092;-71
2022/06/08 04:25:43;;;;;;;24.98;12.68;;;11.70;99.90;;;;;;5131998;27;20058;-71
2022/06/08 04:28:10;;;;;;;17.05;11.23;;;11.70;99.90;;;;;;5148030;27;20042;-71
2022/06/08 04:30:36;;;;;;;19.17;11.45;;;11.80;99.90;;;;;;5129724;27;20347;-71
2022/06/08 04:33:03;;;;;;;19.55;11.10;;;11.80;99.90;;;;;;5128924;27;20039;-72
2022/06/08 04:35:29;;;;;;;16.88;10.77;;;11.90;99.90;;;;;;5128644;27;20085;-71
2022/06/08 04:37:55;;;;;;;15.82;11.30;;;12.00;99.90;;;;;;5129986;27;20046;-72
2022/06/08 04:40:22;;;;;;;21.65;11.07;;;12.30;99.90;;;;;;5129441;27;20035;-71
2022/06/08 04:42:48;;;;;;;16.95;11.75;;;12.20;99.90;;;;;;5147414;27;20042;-71
2022/06/08 04:45:14;;;;;;;17.70;11.50;;;12.30;99.90;;;;;;5151225;27;20043;-71
2022/06/08 04:47:40;;;;;;;18.40;11.18;;;12.40;99.90;;;;;;5150680;27;20126;-71
2022/06/08 04:50:07;;;;;;;19.80;12.43;;;12.60;99.90;;;;;;5130908;27;20054;-72
2022/06/08 04:52:34;;;;;;;21.35;12.30;;;12.60;99.90;;;;;;5149602;27;20038;-72
2022/06/08 04:55:00;;;;;;;20.85;12.50;;;12.70;99.90;;;;;;5130711;27;20074;-72
2022/06/08 04:57:25;;;;;;;18.92;12.07;;;12.70;99.90;;;;;;5147701;27;20035;-72
2022/06/08 04:59:52;;;;;;;19.52;13.25;;;12.80;99.90;;;;;;5114665;27;20098;-71
2022/06/08 05:05:16;;;;;;;19.55;13.05;;;12.90;99.90;;;;;;5124264;27;20043;-71
2022/06/08 05:07:42;;;;;;;24.50;13.68;;;13.80;99.90;;;;;;5147821;27;20055;-71
2022/06/08 05:10:09;;;;;;;19.13;13.60;;;13.00;99.90;;;;;;5149083;27;20101;-71
2022/06/08 05:12:36;;;;;;;18.55;14.23;;;13.00;99.90;;;;;;5127743;27;20040;-71
2022/06/08 05:15:07;;;;;;;20.50;14.52;;;12.70;99.90;;;;;;5144724;27;20061;-71
2022/06/08 05:17:33;;;;;;;22.52;15.68;;;13.10;99.90;;;;;;5126059;27;20043;-71
2022/06/08 05:19:59;;;;;;;24.55;16.70;;;13.20;99.90;;;;;;5128622;27;20068;-71
2022/06/08 05:22:25;;;;;;;22.85;16.15;;;13.20;99.90;;;;;;5128842;28;20727;-70
2022/06/08 05:24:51;;;;;;;25.52;16.02;;;13.20;99.90;;;;;;5123411;27;20043;-71
2022/06/08 05:27:17;;;;;;;24.02;16.40;;;13.30;99.90;;;;;;5130966;27;20037;-71
2022/06/08 05:29:44;;;;;;;27.10;16.33;;;13.30;99.90;;;;;;5152078;27;20050;-70
2022/06/08 05:32:10;;;;;;;22.00;15.50;;;13.30;99.90;;;;;;5129387;27;20039;-71
2022/06/08 05:34:36;;;;;;;25.17;16.23;;;13.30;99.90;;;;;;5130415;27;20035;-71
2022/06/08 05:37:01;;;;;;;23.73;16.48;;;13.40;99.90;;;;;;5148796;27;20463;-71
2022/06/08 05:39:27;;;;;;;24.92;16.50;;;13.40;99.90;;;;;;5149180;27;20031;-71
2022/06/08 05:41:53;;;;;;;23.05;16.08;;;13.50;99.90;;;;;;5149381;27;20049;-71
2022/06/08 05:44:20;;;;;;;26.90;17.05;;;13.70;99.90;;;;;;5129104;27;20054;-71
2022/06/08 05:46:48;;;;;;;25.20;17.35;;;14.00;99.90;;;;;;5127611;27;20047;-71
2022/06/08 05:49:15;;;;;;;26.35;17.40;;;14.30;99.90;;;;;;5131663;27;20068;-70
2022/06/08 05:51:40;;;;;;;30.20;17.90;;;13.70;99.90;;;;;;5149035;27;20510;-71
2022/06/08 05:54:06;;;;;;;28.70;18.30;;;13.80;99.90;;;;;;5124066;27;20097;-71
2022/06/08 05:56:32;;;;;;;26.98;17.45;;;13.80;99.90;;;;;;5151134;27;20070;-70
2022/06/08 05:58:58;;;;;;;27.13;15.98;;;13.80;99.90;;;;;;5127895;28;20081;-71
2022/06/08 06:01:23;;;;;;;28.05;17.20;;;14.70;99.90;;;;;;5109307;28;20053;-71
2022/06/08 06:03:51;;;;;;;22.98;16.52;;;14.00;99.90;;;;;;5130438;27;20380;-71
2022/06/08 06:06:16;;;;;;;27.08;17.02;;;14.20;99.90;;;;;;5147810;27;20436;-71
2022/06/08 06:08:45;;;;;;;25.05;16.45;;;14.10;99.90;;;;;;5141320;27;20504;-71
2022/06/08 06:11:13;;;;;;;25.10;16.80;;;15.20;99.90;;;;;;5131633;27;20051;-71
2022/06/08 06:13:39;;;;;;;24.83;16.55;;;14.20;99.90;;;;;;5131230;27;20508;-72
2022/06/08 06:16:06;;;;;;;26.75;17.83;;;14.30;99.90;;;;;;5149348;27;20034;-72
2022/06/08 06:18:32;;;;;;;27.02;16.98;;;14.40;99.90;;;;;;5152080;27;20054;-71
2022/06/08 06:20:58;;;;;;;24.88;16.65;;;14.40;99.90;;;;;;5151734;27;20042;-72
2022/06/08 06:23:25;;;;;;;23.27;16.27;;;14.40;99.90;;;;;;5151872;27;20070;-72
2022/06/08 06:25:52;;;;;;;23.20;16.05;;;14.50;99.90;;;;;;5152871;27;20047;-71
2022/06/08 06:28:18;;;;;;;25.30;16.15;;;14.60;99.90;;;;;;5151716;27;20359;-72
2022/06/08 06:30:44;;;;;;;23.15;15.20;;;15.60;99.90;;;;;;5152853;27;20041;-72
2022/06/08 06:33:11;;;;;;;22.75;15.93;;;14.90;99.90;;;;;;5154483;27;20046;-71
2022/06/08 06:35:37;;;;;;;25.75;14.90;;;14.90;99.90;;;;;;5150576;27;20486;-70
2022/06/08 06:38:03;;;;;;;23.67;15.10;;;15.00;99.90;;;;;;5168049;27;20043;-70
2022/06/08 06:40:29;;;;;;;22.02;14.85;;;15.10;99.90;;;;;;5132446;27;20034;-70
2022/06/08 06:42:55;;;;;;;21.50;14.38;;;15.20;99.90;;;;;;5141473;27;20046;-70
2022/06/08 06:45:21;;;;;;;22.90;15.25;;;15.90;99.90;;;;;;5129105;27;20115;-70
2022/06/08 06:47:46;;;;;;;21.70;14.55;;;15.30;99.90;;;;;;5150750;27;20037;-70
2022/06/08 06:50:14;;;;;;;24.20;14.63;;;15.40;99.90;;;;;;5132682;27;20505;-71
2022/06/08 06:52:41;;;;;;;20.90;14.57;;;15.80;99.90;;;;;;5150244;27;20043;-71
2022/06/08 06:55:07;;;;;;;20.67;13.75;;;15.60;99.90;;;;;;5132544;27;20086;-71
2022/06/08 06:57:32;;;;;;;21.60;14.13;;;15.70;99.90;;;;;;5115883;27;20046;-72
2022/06/08 06:59:58;;;;;;;20.48;14.18;;;15.70;99.90;;;;;;5151852;27;20126;-71
2022/06/08 07:02:24;;;;;;;21.17;13.90;;;15.80;99.90;;;;;;5150533;27;20525;-71
2022/06/08 07:04:50;;;;;;;23.92;13.43;;;15.90;99.90;;;;;;5151092;27;21073;-72
2022/06/08 07:07:16;;;;;;;21.05;12.88;;;16.10;99.90;;;;;;5151090;27;20042;-71
2022/06/08 07:09:42;;;;;;;20.05;12.95;;;16.20;99.90;;;;;;5151422;27;20451;-71
2022/06/08 07:12:12;;;;;;;18.75;12.60;;;16.40;99.90;;;;;;5154219;27;20054;-71
2022/06/08 07:14:38;;;;;;;16.95;12.18;;;16.40;99.90;;;;;;5129907;27;20043;-72
2022/06/08 07:17:04;;;;;;;16.45;12.35;;;16.40;99.90;;;;;;5147213;27;20039;-71
2022/06/08 07:19:30;;;;;;;17.92;12.13;;;16.40;99.90;;;;;;5111594;27;20456;-71
2022/06/08 07:21:55;;;;;;;17.08;12.27;;;16.50;99.90;;;;;;5111402;27;20039;-72
2022/06/08 07:24:30;;;;;;;18.40;12.40;;;16.60;99.90;;;;;;5130792;27;20532;-71
2022/06/08 07:26:56;;;;;;;16.10;12.00;;;16.60;99.90;;;;;;5145859;27;20088;-72
2022/06/08 07:29:22;;;;;;;16.80;11.63;;;16.70;99.90;;;;;;5114807;27;20055;-72
2022/06/08 07:31:47;;;;;;;17.52;10.77;;;16.80;99.90;;;;;;5129514;27;20049;-72
2022/06/08 07:34:14;;;;;;;15.52;10.75;;;17.00;99.90;;;;;;5130238;27;20039;-72
2022/06/08 07:36:41;;;;;;;12.90;10.13;;;17.10;99.90;;;;;;5131445;27;20099;-71
2022/06/08 07:39:06;;;;;;;12.48;9.82;;;17.20;99.90;;;;;;5131018;27;20043;-71
2022/06/08 07:41:32;;;;;;;14.85;10.85;;;17.30;99.90;;;;;;5157123;27;20075;-71
2022/06/08 07:43:58;;;;;;;14.07;9.52;;;17.40;99.90;;;;;;5159289;27;20039;-71
2022/06/08 07:46:23;;;;;;;12.57;8.50;;;17.40;99.90;;;;;;5129106;27;20046;-71
2022/06/08 07:51:34;;;;;;;14.18;8.55;;;17.50;99.90;;;;;;5128913;27;20506;-72
2022/06/08 07:54:00;;;;;;;12.20;8.90;;;17.50;99.90;;;;;;5145498;27;20051;-71
2022/06/08 07:56:26;;;;;;;10.50;7.95;;;17.50;99.90;;;;;;5133344;27;20035;-71
2022/06/08 07:58:52;;;;;;;10.98;6.93;;;17.50;99.90;;;;;;5131749;27;20485;-72
2022/06/08 08:01:18;;;;;;;10.77;6.90;;;17.50;99.90;;;;;;5149785;27;20126;-72
2022/06/08 08:03:44;;;;;;;13.13;6.32;;;17.50;99.90;;;;;;5149164;27;20055;-72
2022/06/08 08:06:10;;;;;;;11.20;6.35;;;17.60;99.90;;;;;;5133269;27;20047;-71
2022/06/08 08:08:36;;;;;;;12.38;6.57;;;17.70;99.90;;;;;;5129538;27;20042;-70
2022/06/08 08:11:04;;;;;;;12.13;6.25;;;17.70;99.90;;;;;;5133193;27;20069;-72
2022/06/08 08:13:30;;;;;;;7.95;6.40;;;17.90;99.90;;;;;;5130368;27;20050;-71
2022/06/08 08:15:55;;;;;;;10.70;6.03;;;17.90;99.90;;;;;;5139083;27;20051;-71
2022/06/08 08:18:21;;;;;;;8.35;5.85;;;18.00;99.90;;;;;;5131125;27;20938;-71
2022/06/08 08:20:47;;;;;;;8.45;5.97;;;18.20;99.90;;;;;;5149719;27;20050;-72
2022/06/08 08:23:13;;;;;;;8.25;5.50;;;18.30;99.90;;;;;;5148865;27;20038;-72
2022/06/08 08:25:39;;;;;;;9.48;5.93;;;18.40;99.90;;;;;;5130983;27;20122;-71
2022/06/08 08:28:05;;;;;;;8.13;5.60;;;18.50;99.90;;;;;;5130667;27;20126;-72
2022/06/08 08:30:32;;;;;;;7.65;5.18;;;18.60;99.90;;;;;;5130453;27;20050;-72
2022/06/08 08:32:58;;;;;;;9.77;4.85;;;18.70;99.90;;;;;;5147482;27;20114;-72
2022/06/08 08:35:24;;;;;;;6.38;4.50;;;18.80;99.90;;;;;;5147031;27;20130;-71
2022/06/08 08:37:53;;;;;;;7.70;5.28;;;19.00;99.90;;;;;;5151330;27;20035;-73
2022/06/08 08:40:22;;;;;;;8.02;4.57;;;19.20;99.90;;;;;;5148481;27;20050;-72
2022/06/08 08:42:47;;;;;;;7.25;3.50;;;19.20;99.90;;;;;;5149575;27;20110;-73
2022/06/08 08:45:15;;;;;;;6.22;3.20;;;19.30;99.90;;;;;;5149030;27;20058;-73
2022/06/08 08:48:15;;;;;;;8.95;3.20;;;19.30;99.90;;;;;;5146836;27;20106;-73
2022/06/08 08:50:57;;;;;;;4.88;2.95;;;19.40;99.90;;;;;;5098670;27;20127;-73
2022/06/08 08:53:26;;;;;;;4.57;2.55;;;19.40;99.90;;;;;;5149238;27;20125;-73
2022/06/08 08:55:58;;;;;;;5.10;2.78;;;19.40;99.90;;;;;;5129426;27;20499;-72
2022/06/08 08:58:35;;;;;;;3.97;2.42;;;19.50;99.90;;;;;;5110885;27;20469;-73
2022/06/08 09:01:19;;;;;;;6.10;2.22;;;19.40;99.90;;;;;;5127542;27;20056;-72
2022/06/08 09:04:21;;;;;;;4.93;2.38;;;19.60;99.90;;;;;;5109816;27;20147;-73
2022/06/08 09:06:46;;;;;;;3.40;2.10;;;19.80;99.90;;;;;;5127345;27;20047;-74
2022/06/08 09:09:33;;;;;;;3.95;1.90;;;19.80;99.90;;;;;;5127982;27;20419;-72
2022/06/08 09:11:58;;;;;;;4.38;1.75;;;19.90;99.90;;;;;;5110380;28;20063;-72
2022/06/08 09:14:43;;;;;;;3.30;1.88;;;20.00;99.90;;;;;;5127414;27;20146;-72
2022/06/08 09:17:32;;;;;;;5.68;1.50;;;20.20;99.90;;;;;;5109077;28;20077;-73
2022/06/08 09:20:00;;;;;;;4.82;1.80;;;20.20;99.90;;;;;;5128309;28;20096;-72
2022/06/08 09:22:31;;;;;;;4.22;1.80;;;20.40;99.90;;;;;;5126940;27;20039;-71
2022/06/08 09:25:21;;;;;;;3.90;1.80;;;20.10;99.90;;;;;;5129539;28;20057;-72
2022/06/08 09:27:52;;;;;;;3.90;2.20;;;20.40;99.90;;;;;;5109499;28;20206;-72
2022/06/08 09:30:21;;;;;;;4.50;1.90;;;20.40;99.90;;;;;;5127940;28;20118;-73
2022/06/08 09:32:54;;;;;;;4.95;2.00;;;20.40;99.90;;;;;;5092817;28;20160;-72
2022/06/08 09:35:31;;;;;;;4.68;2.10;;;20.50;99.90;;;;;;5091776;28;20118;-72
2022/06/08 09:38:13;;;;;;;3.92;2.30;;;20.60;99.90;;;;;;5128076;27;20455;-72
2022/06/08 09:41:08;;;;;;;5.93;2.10;;;20.80;99.90;;;;;;5127913;28;20035;-72
2022/06/08 09:43:38;;;;;;;5.10;1.90;;;20.90;99.90;;;;;;5111821;27;20055;-72
2022/06/08 09:51:25;;;;;;;4.80;1.90;;;21.10;99.90;;;;;;5113571;27;20047;-73
2022/06/08 09:52:23;;;;;;;4.18;1.80;;;21.50;99.90;;;;;;5135006;27;20136;-73
2022/06/08 09:55:20;;;;;;;5.68;1.88;;;21.50;99.90;;;;;;5114881;27;20069;-73
2022/06/08 09:58:13;;;;;;;5.13;1.90;;;21.60;99.90;;;;;;5131368;27;20043;-73
2022/06/08 10:00:55;;;;;;;4.45;1.63;;;21.70;99.90;;;;;;5132597;27;20458;-72
2022/06/08 10:03:34;;;;;;;4.18;2.10;;;21.80;99.90;;;;;;5131916;27;20138;-73
2022/06/08 10:06:40;;;;;;;3.10;1.70;;;21.90;99.90;;;;;;5132077;27;20084;-73
2022/06/08 10:09:18;;;;;;;3.67;2.20;;;22.00;99.90;;;;;;5120449;27;20455;-74
2022/06/08 10:12:02;;;;;;;6.63;2.17;;;22.10;99.90;;;;;;5131373;27;20043;-73
2022/06/08 10:14:39;;;;;;;3.90;1.80;;;22.10;99.90;;;;;;5132300;27;20047;-73
2022/06/08 10:17:30;;;;;;;5.85;2.30;;;21.90;99.90;;;;;;5130246;27;20039;-73
2022/06/08 10:20:16;;;;;;;4.18;2.30;;;21.80;99.90;;;;;;5131659;27;20073;-73
2022/06/08 10:22:46;;;;;;;5.80;2.63;;;21.70;99.90;;;;;;5133291;27;20047;-73
2022/06/08 10:25:38;;;;;;;5.25;2.40;;;21.60;99.90;;;;;;5130351;27;20220;-73
2022/06/08 10:28:15;;;;;;;4.22;2.60;;;21.50;99.90;;;;;;5132096;27;20409;-73
2022/06/08 10:30:46;;;;;;;7.22;2.83;;;21.40;99.90;;;;;;5131841;27;20483;-73
2022/06/08 10:33:27;;;;;;;4.15;2.70;;;21.30;99.90;;;;;;5132673;27;20074;-73
2022/06/08 10:35:57;;;;;;;4.72;2.90;;;21.30;99.90;;;;;;5114430;27;20043;-73
2022/06/08 10:38:28;;;;;;;5.47;2.75;;;21.30;99.90;;;;;;5130784;27;20437;-73
2022/06/08 10:43:59;;;;;;;5.80;2.80;;;21.40;99.90;;;;;;5113294;27;20133;-72
2022/06/08 10:46:46;;;;;;;6.10;3.03;;;21.30;99.90;;;;;;5111615;27;20139;-73
2022/06/08 10:49:35;;;;;;;4.70;3.05;;;21.20;99.90;;;;;;5130221;27;20039;-73
2022/06/08 10:52:19;;;;;;;5.55;3.30;;;21.00;99.90;;;;;;5119717;27;20143;-73
2022/06/08 10:54:53;;;;;;;7.13;3.20;;;21.00;99.90;;;;;;5130161;27;20043;-73
2022/06/08 10:57:41;;;;;;;6.45;3.10;;;21.10;99.90;;;;;;5131435;27;20123;-73
2022/06/08 11:00:19;;;;;;;5.90;3.00;;;21.60;99.90;;;;;;5130361;27;20050;-73
2022/06/08 11:03:01;;;;;;;6.07;3.05;;;22.00;99.90;;;;;;5130480;27;20043;-73
2022/06/08 11:05:36;;;;;;;6.35;3.80;;;22.20;99.90;;;;;;5130626;27;20043;-72
2022/06/08 11:08:01;;;;;;;8.07;3.73;;;22.20;99.90;;;;;;5129920;27;20379;-73
2022/06/08 11:10:47;;;;;;;6.47;3.47;;;22.00;99.90;;;;;;5096810;27;20047;-73
2022/06/08 11:13:26;;;;;;;7.45;4.05;;;21.80;99.90;;;;;;5130429;27;20051;-73
2022/06/08 11:16:11;;;;;;;8.65;3.40;;;21.60;99.90;;;;;;5120330;27;20038;-73
2022/06/08 11:18:48;;;;;;;5.57;3.20;;;21.50;99.90;;;;;;5154452;27;20086;-73
2022/06/08 11:21:13;;;;;;;7.60;3.63;;;21.40;99.90;;;;;;5112313;27;20054;-73
2022/06/08 11:23:44;;;;;;;12.85;3.90;;;21.10;99.90;;;;;;5130294;27;20487;-73
2022/06/08 11:26:25;;;;;;;10.00;3.90;;;21.00;99.90;;;;;;5132709;27;20047;-73
2022/06/08 11:29:22;;;;;;;6.15;3.35;;;20.90;99.90;;;;;;5130173;27;20047;-73
2022/06/08 11:31:56;;;;;;;6.22;3.40;;;20.80;99.90;;;;;;5129235;27;20569;-72
2022/06/08 11:34:22;;;;;;;7.75;3.75;;;20.70;99.90;;;;;;5129552;27;20062;-72
2022/06/08 11:37:00;;;;;;;7.22;3.90;;;20.70;99.90;;;;;;5130064;27;20448;-73
2022/06/08 11:39:51;;;;;;;5.78;3.40;;;20.50;99.90;;;;;;5111137;27;20413;-72
2022/06/08 11:42:30;;;;;;;8.15;3.88;;;20.40;99.90;;;;;;5111722;27;20121;-73
2022/06/08 11:45:15;;;;;;;6.85;4.00;;;20.30;99.90;;;;;;5130905;27;20043;-71
2022/06/08 11:48:04;;;;;;;5.80;3.92;;;20.20;99.90;;;;;;5130187;27;20427;-71
2022/06/08 11:50:43;;;;;;;7.70;4.15;;;20.20;99.90;;;;;;5132045;27;20040;-72
2022/06/08 11:53:29;;;;;;;7.20;4.47;;;20.10;99.90;;;;;;5129709;27;20078;-72
2022/06/08 11:56:13;;;;;;;8.60;4.80;;;19.90;99.90;;;;;;5129245;27;20043;-73
2022/06/08 11:58:47;;;;;;;7.47;4.57;;;19.70;99.90;;;;;;5111852;27;20122;-72
2022/06/08 12:01:26;;;;;;;7.78;4.20;;;19.50;99.90;;;;;;5129197;27;20092;-73
2022/06/08 12:04:05;;;;;;;6.72;4.50;;;19.40;99.90;;;;;;5110374;27;20127;-73
2022/06/08 12:06:37;;;;;;;7.65;4.47;;;19.20;99.90;;;;;;5110548;27;20051;-73
2022/06/08 12:09:21;;;;;;;7.50;4.43;;;19.20;99.90;;;;;;5129463;27;20035;-73
2022/06/08 12:11:50;;;;;;;6.45;4.38;;;19.20;99.90;;;;;;5129143;27;20058;-72
2022/06/08 12:14:17;;;;;;;8.38;4.47;;;19.20;99.90;;;;;;5129726;27;20031;-73
2022/06/08 12:17:17;;;;;;;9.48;5.13;;;19.20;99.90;;;;;;5128315;27;20497;-73
2022/06/08 12:19:58;;;;;;;7.80;4.82;;;19.20;99.90;;;;;;5152211;27;20127;-73
2022/06/08 12:22:33;;;;;;;6.70;5.15;;;19.20;99.90;;;;;;5130656;27;20034;-73
2022/06/08 12:25:24;;;;;;;8.00;5.40;;;19.20;99.90;;;;;;5148170;27;20054;-73
2022/06/08 12:28:03;;;;;;;8.88;5.85;;;19.30;99.90;;;;;;5150003;27;20054;-73
2022/06/08 12:30:34;;;;;;;7.95;4.75;;;19.50;99.90;;;;;;5151563;27;20095;-73
2022/06/08 12:33:18;;;;;;;10.38;4.90;;;19.90;99.90;;;;;;5130764;27;20126;-73
2022/06/08 12:35:56;;;;;;;7.88;4.55;;;20.20;99.90;;;;;;5149307;27;20046;-73
2022/06/08 12:38:33;;;;;;;8.70;5.18;;;20.30;99.90;;;;;;5148318;27;20054;-73
2022/06/08 12:41:02;;;;;;;8.50;4.85;;;20.20;99.90;;;;;;5150385;27;20078;-73
2022/06/08 12:43:39;;;;;;;8.10;4.82;;;20.10;99.90;;;;;;5136646;27;20086;-73
2022/06/08 12:46:15;;;;;;;10.20;4.60;;;20.00;99.90;;;;;;5127470;27;20122;-74
2022/06/08 12:48:58;;;;;;;8.73;4.68;;;19.90;99.90;;;;;;5129377;27;20388;-73
2022/06/08 12:51:35;;;;;;;10.90;5.50;;;19.70;99.90;;;;;;5110776;27;20046;-72
2022/06/08 12:54:13;;;;;;;8.77;4.40;;;19.50;99.90;;;;;;5131309;27;20050;-72
2022/06/08 12:56:41;;;;;;;9.00;3.10;;;19.40;99.90;;;;;;5132686;27;20051;-73
2022/06/08 12:59:06;;;;;;;4.45;2.20;;;19.20;99.90;;;;;;5148781;27;20049;-72
2022/06/08 13:01:32;;;;;;;8.20;1.90;;;19.00;99.90;;;;;;5148210;27;20034;-72
2022/06/08 13:03:58;;;;;;;6.38;1.83;;;18.80;99.90;;;;;;5149327;27;20039;-72
2022/06/08 13:06:24;;;;;;;4.95;1.98;;;18.70;99.90;;;;;;5147902;27;20042;-72
2022/06/08 13:08:50;;;;;;;4.25;1.70;;;18.50;99.90;;;;;;5130178;27;20138;-72
2022/06/08 13:11:23;;;;;;;4.43;1.92;;;18.50;99.90;;;;;;5149235;27;20037;-72
2022/06/08 13:13:51;;;;;;;5.20;2.10;;;18.40;99.90;;;;;;5130250;27;20058;-73
2022/06/08 13:16:23;;;;;;;5.22;1.90;;;18.30;99.90;;;;;;5147934;27;20175;-68
2022/06/08 13:18:52;;;;;;;5.55;1.92;;;18.30;99.90;;;;;;5148473;27;20367;-72